sensor_id;sensor_type;location;lat;lon;timestamp;P1;durP1;ratioP1;P2;durP2;ratioP2
13303;SDS011;6720;51.958;4.540;2023-11-21T00:01:35;30.27;;;14.47;;
13303;SDS011;6720;51.958;4.540;2023-11-21T00:04:00;30.10;;;15.20;;
13303;SDS011;6720;51.958;4.540;2023-11-21T00:06:26;31.77;;;16.33;;
13303;SDS011;6720;51.958;4.540;2023-11-21T00:08:52;31.67;;;15.87;;
13303;SDS011;6720;51.958;4.540;2023-11-21T00:11:17;32.77;;;16.00;;
13303;SDS011;6720;51.958;4.540;2023-11-21T00:13:42;26.47;;;15.13;;
13303;SDS011;6720;51.958;4.540;2023-11-21T00:16:08;27.10;;;15.07;;
13303;SDS011;6720;51.958;4.540;2023-11-21T00:18:34;32.13;;;17.93;;
13303;SDS011;6720;51.958;4.540;2023-11-21T00:20:59;26.87;;;14.53;;
13303;SDS011;6720;51.958;4.540;2023-11-21T00:23:25;28.30;;;14.67;;
13303;SDS011;6720;51.958;4.540;2023-11-21T00:25:50;26.23;;;15.43;;
13303;SDS011;6720;51.958;4.540;2023-11-21T00:28:15;30.63;;;15.47;;
13303;SDS011;6720;51.958;4.540;2023-11-21T00:30:41;33.07;;;15.80;;
13303;SDS011;6720;51.958;4.540;2023-11-21T00:33:06;29.33;;;15.10;;
13303;SDS011;6720;51.958;4.540;2023-11-21T00:35:32;27.50;;;15.23;;
13303;SDS011;6720;51.958;4.540;2023-11-21T00:37:57;25.10;;;15.10;;
13303;SDS011;6720;51.958;4.540;2023-11-21T00:40:23;30.87;;;15.30;;
13303;SDS011;6720;51.958;4.540;2023-11-21T00:42:49;22.43;;;14.00;;
13303;SDS011;6720;51.958;4.540;2023-11-21T00:45:15;28.43;;;14.90;;
13303;SDS011;6720;51.958;4.540;2023-11-21T00:47:41;24.70;;;14.97;;
13303;SDS011;6720;51.958;4.540;2023-11-21T00:50:07;29.97;;;15.30;;
13303;SDS011;6720;51.958;4.540;2023-11-21T00:52:34;29.87;;;15.70;;
13303;SDS011;6720;51.958;4.540;2023-11-21T00:55:01;33.33;;;14.97;;
13303;SDS011;6720;51.958;4.540;2023-11-21T00:57:28;25.43;;;14.47;;
13303;SDS011;6720;51.958;4.540;2023-11-21T00:59:53;32.00;;;15.03;;
13303;SDS011;6720;51.958;4.540;2023-11-21T01:02:19;23.03;;;14.27;;
13303;SDS011;6720;51.958;4.540;2023-11-21T01:04:45;30.97;;;15.07;;
13303;SDS011;6720;51.958;4.540;2023-11-21T01:07:10;26.47;;;14.47;;
13303;SDS011;6720;51.958;4.540;2023-11-21T01:09:35;26.93;;;14.47;;
13303;SDS011;6720;51.958;4.540;2023-11-21T01:12:01;23.97;;;14.57;;
13303;SDS011;6720;51.958;4.540;2023-11-21T01:14:27;27.93;;;14.43;;
13303;SDS011;6720;51.958;4.540;2023-11-21T01:16:52;31.70;;;14.47;;
13303;SDS011;6720;51.958;4.540;2023-11-21T01:19:18;29.03;;;15.33;;
13303;SDS011;6720;51.958;4.540;2023-11-21T01:21:44;30.53;;;15.33;;
13303;SDS011;6720;51.958;4.540;2023-11-21T01:24:09;27.53;;;14.90;;
13303;SDS011;6720;51.958;4.540;2023-11-21T01:26:34;30.97;;;14.17;;
13303;SDS011;6720;51.958;4.540;2023-11-21T01:29:00;33.27;;;14.47;;
13303;SDS011;6720;51.958;4.540;2023-11-21T01:31:25;31.17;;;15.03;;
13303;SDS011;6720;51.958;4.540;2023-11-21T01:33:54;28.13;;;14.70;;
13303;SDS011;6720;51.958;4.540;2023-11-21T01:36:20;28.30;;;14.67;;
13303;SDS011;6720;51.958;4.540;2023-11-21T01:38:46;29.57;;;14.33;;
13303;SDS011;6720;51.958;4.540;2023-11-21T01:41:13;29.80;;;15.17;;
13303;SDS011;6720;51.958;4.540;2023-11-21T01:43:38;21.77;;;14.70;;
13303;SDS011;6720;51.958;4.540;2023-11-21T01:46:04;28.73;;;14.67;;
13303;SDS011;6720;51.958;4.540;2023-11-21T01:48:31;28.90;;;15.57;;
13303;SDS011;6720;51.958;4.540;2023-11-21T01:50:56;31.13;;;15.50;;
13303;SDS011;6720;51.958;4.540;2023-11-21T01:53:24;34.97;;;15.53;;
13303;SDS011;6720;51.958;4.540;2023-11-21T01:55:51;31.67;;;15.20;;
13303;SDS011;6720;51.958;4.540;2023-11-21T01:58:17;26.70;;;14.83;;
13303;SDS011;6720;51.958;4.540;2023-11-21T02:00:42;31.80;;;15.33;;
13303;SDS011;6720;51.958;4.540;2023-11-21T02:03:08;24.43;;;14.63;;
13303;SDS011;6720;51.958;4.540;2023-11-21T02:05:35;32.93;;;15.10;;
13303;SDS011;6720;51.958;4.540;2023-11-21T02:08:01;32.80;;;15.80;;
13303;SDS011;6720;51.958;4.540;2023-11-21T02:10:27;28.30;;;15.37;;
13303;SDS011;6720;51.958;4.540;2023-11-21T02:12:54;25.83;;;15.07;;
13303;SDS011;6720;51.958;4.540;2023-11-21T02:15:21;26.60;;;13.70;;
13303;SDS011;6720;51.958;4.540;2023-11-21T02:17:48;29.60;;;15.40;;
13303;SDS011;6720;51.958;4.540;2023-11-21T02:20:16;32.13;;;15.70;;
13303;SDS011;6720;51.958;4.540;2023-11-21T02:22:43;25.50;;;14.83;;
13303;SDS011;6720;51.958;4.540;2023-11-21T02:25:10;25.27;;;14.20;;
13303;SDS011;6720;51.958;4.540;2023-11-21T02:27:36;29.27;;;16.17;;
13303;SDS011;6720;51.958;4.540;2023-11-21T02:30:02;27.57;;;16.23;;
13303;SDS011;6720;51.958;4.540;2023-11-21T02:32:29;29.70;;;16.03;;
13303;SDS011;6720;51.958;4.540;2023-11-21T02:34:56;27.53;;;14.53;;
13303;SDS011;6720;51.958;4.540;2023-11-21T02:37:26;26.50;;;15.03;;
13303;SDS011;6720;51.958;4.540;2023-11-21T02:39:51;26.50;;;15.57;;
13303;SDS011;6720;51.958;4.540;2023-11-21T02:42:17;29.57;;;16.53;;
13303;SDS011;6720;51.958;4.540;2023-11-21T02:44:43;28.47;;;16.23;;
13303;SDS011;6720;51.958;4.540;2023-11-21T02:47:08;26.93;;;16.37;;
13303;SDS011;6720;51.958;4.540;2023-11-21T02:49:34;38.53;;;17.17;;
13303;SDS011;6720;51.958;4.540;2023-11-21T02:52:00;29.33;;;15.90;;
13303;SDS011;6720;51.958;4.540;2023-11-21T02:54:26;31.87;;;17.77;;
13303;SDS011;6720;51.958;4.540;2023-11-21T02:56:52;33.07;;;16.27;;
13303;SDS011;6720;51.958;4.540;2023-11-21T02:59:17;30.17;;;16.57;;
13303;SDS011;6720;51.958;4.540;2023-11-21T03:01:44;29.63;;;16.40;;
13303;SDS011;6720;51.958;4.540;2023-11-21T03:04:11;32.57;;;16.53;;
13303;SDS011;6720;51.958;4.540;2023-11-21T03:06:40;29.40;;;16.13;;
13303;SDS011;6720;51.958;4.540;2023-11-21T03:09:06;35.33;;;16.27;;
13303;SDS011;6720;51.958;4.540;2023-11-21T03:11:31;30.53;;;17.63;;
13303;SDS011;6720;51.958;4.540;2023-11-21T03:13:57;28.50;;;15.70;;
13303;SDS011;6720;51.958;4.540;2023-11-21T03:16:22;28.50;;;15.50;;
13303;SDS011;6720;51.958;4.540;2023-11-21T03:18:48;27.70;;;15.63;;
13303;SDS011;6720;51.958;4.540;2023-11-21T03:21:13;30.93;;;16.67;;
13303;SDS011;6720;51.958;4.540;2023-11-21T03:23:38;32.07;;;15.67;;
13303;SDS011;6720;51.958;4.540;2023-11-21T03:26:04;25.73;;;14.90;;
13303;SDS011;6720;51.958;4.540;2023-11-21T03:28:33;29.67;;;16.23;;
13303;SDS011;6720;51.958;4.540;2023-11-21T03:30:59;30.67;;;16.93;;
13303;SDS011;6720;51.958;4.540;2023-11-21T03:33:24;30.83;;;16.57;;
13303;SDS011;6720;51.958;4.540;2023-11-21T03:35:49;31.93;;;16.63;;
13303;SDS011;6720;51.958;4.540;2023-11-21T03:38:15;26.93;;;15.67;;
13303;SDS011;6720;51.958;4.540;2023-11-21T03:40:41;26.20;;;15.73;;
13303;SDS011;6720;51.958;4.540;2023-11-21T03:43:06;28.37;;;15.30;;
13303;SDS011;6720;51.958;4.540;2023-11-21T03:45:32;26.70;;;16.07;;
13303;SDS011;6720;51.958;4.540;2023-11-21T03:47:57;29.63;;;16.27;;
13303;SDS011;6720;51.958;4.540;2023-11-21T03:50:23;27.23;;;15.30;;
13303;SDS011;6720;51.958;4.540;2023-11-21T03:52:48;29.97;;;16.47;;
13303;SDS011;6720;51.958;4.540;2023-11-21T03:55:13;41.50;;;16.23;;
13303;SDS011;6720;51.958;4.540;2023-11-21T03:57:40;31.80;;;15.23;;
13303;SDS011;6720;51.958;4.540;2023-11-21T04:00:05;30.57;;;15.13;;
13303;SDS011;6720;51.958;4.540;2023-11-21T04:02:33;26.70;;;14.33;;
13303;SDS011;6720;51.958;4.540;2023-11-21T04:04:59;23.23;;;14.03;;
13303;SDS011;6720;51.958;4.540;2023-11-21T04:07:25;27.83;;;14.37;;
13303;SDS011;6720;51.958;4.540;2023-11-21T04:09:50;24.87;;;14.60;;
13303;SDS011;6720;51.958;4.540;2023-11-21T04:12:15;27.03;;;14.40;;
13303;SDS011;6720;51.958;4.540;2023-11-21T04:14:41;27.43;;;13.93;;
13303;SDS011;6720;51.958;4.540;2023-11-21T04:17:06;29.53;;;14.43;;
13303;SDS011;6720;51.958;4.540;2023-11-21T04:19:32;29.07;;;15.07;;
13303;SDS011;6720;51.958;4.540;2023-11-21T04:21:57;26.53;;;15.00;;
13303;SDS011;6720;51.958;4.540;2023-11-21T04:24:22;28.77;;;13.37;;
13303;SDS011;6720;51.958;4.540;2023-11-21T04:26:48;26.70;;;13.87;;
13303;SDS011;6720;51.958;4.540;2023-11-21T04:29:13;30.50;;;14.87;;
13303;SDS011;6720;51.958;4.540;2023-11-21T04:31:39;27.43;;;13.63;;
13303;SDS011;6720;51.958;4.540;2023-11-21T04:34:04;27.60;;;13.93;;
13303;SDS011;6720;51.958;4.540;2023-11-21T04:36:30;30.10;;;13.50;;
13303;SDS011;6720;51.958;4.540;2023-11-21T04:38:58;23.83;;;14.23;;
13303;SDS011;6720;51.958;4.540;2023-11-21T04:41:23;30.43;;;14.10;;
13303;SDS011;6720;51.958;4.540;2023-11-21T04:43:49;23.23;;;13.60;;
13303;SDS011;6720;51.958;4.540;2023-11-21T04:46:15;24.63;;;14.33;;
13303;SDS011;6720;51.958;4.540;2023-11-21T04:48:41;26.33;;;14.77;;
13303;SDS011;6720;51.958;4.540;2023-11-21T04:51:06;27.03;;;13.77;;
13303;SDS011;6720;51.958;4.540;2023-11-21T04:53:32;28.17;;;14.10;;
13303;SDS011;6720;51.958;4.540;2023-11-21T04:55:57;23.97;;;13.20;;
13303;SDS011;6720;51.958;4.540;2023-11-21T04:58:23;28.37;;;13.77;;
13303;SDS011;6720;51.958;4.540;2023-11-21T05:00:49;25.33;;;14.30;;
13303;SDS011;6720;51.958;4.540;2023-11-21T05:03:14;20.87;;;13.53;;
13303;SDS011;6720;51.958;4.540;2023-11-21T05:05:40;24.63;;;13.67;;
13303;SDS011;6720;51.958;4.540;2023-11-21T05:08:05;28.97;;;14.43;;
13303;SDS011;6720;51.958;4.540;2023-11-21T05:10:31;32.37;;;15.50;;
13303;SDS011;6720;51.958;4.540;2023-11-21T05:12:56;27.17;;;14.53;;
13303;SDS011;6720;51.958;4.540;2023-11-21T05:15:21;30.10;;;15.83;;
13303;SDS011;6720;51.958;4.540;2023-11-21T05:17:48;36.50;;;14.80;;
13303;SDS011;6720;51.958;4.540;2023-11-21T05:20:15;29.27;;;14.83;;
13303;SDS011;6720;51.958;4.540;2023-11-21T05:22:47;27.20;;;14.53;;
13303;SDS011;6720;51.958;4.540;2023-11-21T05:25:16;29.70;;;14.07;;
13303;SDS011;6720;51.958;4.540;2023-11-21T05:27:45;26.37;;;14.37;;
13303;SDS011;6720;51.958;4.540;2023-11-21T05:30:11;26.40;;;14.57;;
13303;SDS011;6720;51.958;4.540;2023-11-21T05:32:38;28.37;;;14.20;;
13303;SDS011;6720;51.958;4.540;2023-11-21T05:35:04;22.33;;;13.53;;
13303;SDS011;6720;51.958;4.540;2023-11-21T05:37:34;22.57;;;14.17;;
13303;SDS011;6720;51.958;4.540;2023-11-21T05:40:01;24.13;;;13.87;;
13303;SDS011;6720;51.958;4.540;2023-11-21T05:42:30;25.57;;;14.93;;
13303;SDS011;6720;51.958;4.540;2023-11-21T05:44:57;29.33;;;14.63;;
13303;SDS011;6720;51.958;4.540;2023-11-21T05:47:24;21.57;;;13.73;;
13303;SDS011;6720;51.958;4.540;2023-11-21T05:49:51;26.53;;;16.30;;
13303;SDS011;6720;51.958;4.540;2023-11-21T05:52:17;20.87;;;13.67;;
13303;SDS011;6720;51.958;4.540;2023-11-21T05:54:42;27.47;;;15.57;;
13303;SDS011;6720;51.958;4.540;2023-11-21T05:57:08;22.67;;;14.93;;
13303;SDS011;6720;51.958;4.540;2023-11-21T05:59:34;23.23;;;15.17;;
13303;SDS011;6720;51.958;4.540;2023-11-21T06:01:59;23.10;;;14.73;;
13303;SDS011;6720;51.958;4.540;2023-11-21T06:04:24;23.00;;;14.00;;
13303;SDS011;6720;51.958;4.540;2023-11-21T06:06:51;24.80;;;13.43;;
13303;SDS011;6720;51.958;4.540;2023-11-21T06:09:17;21.57;;;12.93;;
13303;SDS011;6720;51.958;4.540;2023-11-21T06:11:43;26.10;;;12.67;;
13303;SDS011;6720;51.958;4.540;2023-11-21T06:14:08;22.73;;;14.60;;
13303;SDS011;6720;51.958;4.540;2023-11-21T06:16:34;26.50;;;14.17;;
13303;SDS011;6720;51.958;4.540;2023-11-21T06:19:00;21.00;;;12.73;;
13303;SDS011;6720;51.958;4.540;2023-11-21T06:21:26;19.60;;;12.23;;
13303;SDS011;6720;51.958;4.540;2023-11-21T06:23:51;22.33;;;12.20;;
13303;SDS011;6720;51.958;4.540;2023-11-21T06:26:18;23.43;;;12.23;;
13303;SDS011;6720;51.958;4.540;2023-11-21T06:28:43;22.17;;;12.00;;
13303;SDS011;6720;51.958;4.540;2023-11-21T06:31:09;22.47;;;12.30;;
13303;SDS011;6720;51.958;4.540;2023-11-21T06:33:35;23.17;;;11.70;;
13303;SDS011;6720;51.958;4.540;2023-11-21T06:36:01;22.67;;;11.77;;
13303;SDS011;6720;51.958;4.540;2023-11-21T06:38:31;14.77;;;10.67;;
13303;SDS011;6720;51.958;4.540;2023-11-21T06:40:57;17.00;;;10.97;;
13303;SDS011;6720;51.958;4.540;2023-11-21T06:43:23;20.40;;;11.03;;
13303;SDS011;6720;51.958;4.540;2023-11-21T06:45:49;18.70;;;10.30;;
13303;SDS011;6720;51.958;4.540;2023-11-21T06:48:14;16.53;;;11.03;;
13303;SDS011;6720;51.958;4.540;2023-11-21T06:50:40;15.83;;;9.83;;
13303;SDS011;6720;51.958;4.540;2023-11-21T06:53:06;20.67;;;9.90;;
13303;SDS011;6720;51.958;4.540;2023-11-21T06:55:33;17.70;;;10.13;;
13303;SDS011;6720;51.958;4.540;2023-11-21T06:57:59;14.57;;;9.43;;
13303;SDS011;6720;51.958;4.540;2023-11-21T07:00:25;24.50;;;15.50;;
13303;SDS011;6720;51.958;4.540;2023-11-21T07:02:53;16.20;;;9.97;;
13303;SDS011;6720;51.958;4.540;2023-11-21T07:05:20;17.47;;;10.63;;
13303;SDS011;6720;51.958;4.540;2023-11-21T07:07:46;17.20;;;10.03;;
13303;SDS011;6720;51.958;4.540;2023-11-21T07:10:13;14.43;;;9.03;;
13303;SDS011;6720;51.958;4.540;2023-11-21T07:12:39;16.13;;;9.33;;
13303;SDS011;6720;51.958;4.540;2023-11-21T07:15:05;14.90;;;9.00;;
13303;SDS011;6720;51.958;4.540;2023-11-21T07:17:34;14.23;;;9.00;;
13303;SDS011;6720;51.958;4.540;2023-11-21T07:20:00;13.83;;;8.27;;
13303;SDS011;6720;51.958;4.540;2023-11-21T07:22:26;13.87;;;7.87;;
13303;SDS011;6720;51.958;4.540;2023-11-21T07:24:51;15.17;;;8.67;;
13303;SDS011;6720;51.958;4.540;2023-11-21T07:27:17;16.03;;;8.57;;
13303;SDS011;6720;51.958;4.540;2023-11-21T07:29:42;14.83;;;8.17;;
13303;SDS011;6720;51.958;4.540;2023-11-21T07:32:08;15.47;;;8.00;;
13303;SDS011;6720;51.958;4.540;2023-11-21T07:34:34;18.27;;;10.00;;
13303;SDS011;6720;51.958;4.540;2023-11-21T07:37:01;16.33;;;7.47;;
13303;SDS011;6720;51.958;4.540;2023-11-21T07:39:27;13.33;;;6.93;;
13303;SDS011;6720;51.958;4.540;2023-11-21T07:41:52;14.20;;;5.87;;
13303;SDS011;6720;51.958;4.540;2023-11-21T07:44:17;11.20;;;6.57;;
13303;SDS011;6720;51.958;4.540;2023-11-21T07:46:44;18.27;;;9.67;;
13303;SDS011;6720;51.958;4.540;2023-11-21T07:49:10;17.07;;;9.80;;
13303;SDS011;6720;51.958;4.540;2023-11-21T07:51:36;21.30;;;12.30;;
13303;SDS011;6720;51.958;4.540;2023-11-21T07:54:02;11.83;;;6.90;;
13303;SDS011;6720;51.958;4.540;2023-11-21T07:56:27;15.37;;;8.40;;
13303;SDS011;6720;51.958;4.540;2023-11-21T07:58:53;12.63;;;6.53;;
13303;SDS011;6720;51.958;4.540;2023-11-21T08:01:19;12.33;;;7.87;;
13303;SDS011;6720;51.958;4.540;2023-11-21T08:03:44;21.37;;;10.77;;
13303;SDS011;6720;51.958;4.540;2023-11-21T08:06:10;13.93;;;6.63;;
13303;SDS011;6720;51.958;4.540;2023-11-21T08:08:35;16.70;;;6.70;;
13303;SDS011;6720;51.958;4.540;2023-11-21T08:11:01;12.60;;;6.50;;
13303;SDS011;6720;51.958;4.540;2023-11-21T08:13:27;10.83;;;8.00;;
13303;SDS011;6720;51.958;4.540;2023-11-21T08:15:54;19.63;;;9.43;;
13303;SDS011;6720;51.958;4.540;2023-11-21T08:18:19;12.33;;;7.60;;
13303;SDS011;6720;51.958;4.540;2023-11-21T08:20:45;11.13;;;6.70;;
13303;SDS011;6720;51.958;4.540;2023-11-21T08:23:13;10.37;;;7.20;;
13303;SDS011;6720;51.958;4.540;2023-11-21T08:25:42;10.30;;;6.77;;
13303;SDS011;6720;51.958;4.540;2023-11-21T08:28:11;12.73;;;7.27;;
13303;SDS011;6720;51.958;4.540;2023-11-21T08:30:37;12.20;;;7.20;;
13303;SDS011;6720;51.958;4.540;2023-11-21T08:33:02;13.30;;;8.43;;
13303;SDS011;6720;51.958;4.540;2023-11-21T08:35:28;13.90;;;7.53;;
13303;SDS011;6720;51.958;4.540;2023-11-21T08:37:54;12.67;;;7.83;;
13303;SDS011;6720;51.958;4.540;2023-11-21T08:40:20;11.77;;;7.67;;
13303;SDS011;6720;51.958;4.540;2023-11-21T08:42:46;17.27;;;9.20;;
13303;SDS011;6720;51.958;4.540;2023-11-21T08:45:13;31.10;;;20.80;;
13303;SDS011;6720;51.958;4.540;2023-11-21T08:47:39;24.73;;;15.47;;
13303;SDS011;6720;51.958;4.540;2023-11-21T08:50:05;13.67;;;7.00;;
13303;SDS011;6720;51.958;4.540;2023-11-21T08:52:33;13.90;;;7.80;;
13303;SDS011;6720;51.958;4.540;2023-11-21T08:54:58;13.43;;;8.30;;
13303;SDS011;6720;51.958;4.540;2023-11-21T08:57:27;13.87;;;7.93;;
13303;SDS011;6720;51.958;4.540;2023-11-21T08:59:53;19.23;;;13.23;;
13303;SDS011;6720;51.958;4.540;2023-11-21T09:02:21;25.43;;;16.87;;
13303;SDS011;6720;51.958;4.540;2023-11-21T09:04:48;14.37;;;9.17;;
13303;SDS011;6720;51.958;4.540;2023-11-21T09:07:14;11.10;;;6.33;;
13303;SDS011;6720;51.958;4.540;2023-11-21T09:09:39;10.87;;;7.40;;
13303;SDS011;6720;51.958;4.540;2023-11-21T09:12:04;12.43;;;7.20;;
13303;SDS011;6720;51.958;4.540;2023-11-21T09:14:31;10.00;;;6.30;;
13303;SDS011;6720;51.958;4.540;2023-11-21T09:16:56;14.30;;;6.93;;
13303;SDS011;6720;51.958;4.540;2023-11-21T09:19:21;9.10;;;7.27;;
13303;SDS011;6720;51.958;4.540;2023-11-21T09:21:47;11.27;;;8.17;;
13303;SDS011;6720;51.958;4.540;2023-11-21T09:24:12;12.77;;;6.90;;
13303;SDS011;6720;51.958;4.540;2023-11-21T09:26:37;10.80;;;7.90;;
13303;SDS011;6720;51.958;4.540;2023-11-21T09:29:03;12.03;;;6.90;;
13303;SDS011;6720;51.958;4.540;2023-11-21T09:31:28;10.30;;;7.07;;
13303;SDS011;6720;51.958;4.540;2023-11-21T09:33:54;11.07;;;7.43;;
13303;SDS011;6720;51.958;4.540;2023-11-21T09:36:19;17.07;;;12.07;;
13303;SDS011;6720;51.958;4.540;2023-11-21T09:38:48;28.70;;;19.17;;
13303;SDS011;6720;51.958;4.540;2023-11-21T09:41:23;14.20;;;9.27;;
13303;SDS011;6720;51.958;4.540;2023-11-21T09:43:53;11.67;;;8.77;;
13303;SDS011;6720;51.958;4.540;2023-11-21T09:46:21;13.00;;;8.90;;
13303;SDS011;6720;51.958;4.540;2023-11-21T09:48:50;12.13;;;9.00;;
13303;SDS011;6720;51.958;4.540;2023-11-21T09:51:21;15.17;;;9.50;;
13303;SDS011;6720;51.958;4.540;2023-11-21T09:53:54;28.83;;;21.07;;
13303;SDS011;6720;51.958;4.540;2023-11-21T09:56:23;13.73;;;10.27;;
13303;SDS011;6720;51.958;4.540;2023-11-21T09:58:52;16.40;;;11.47;;
13303;SDS011;6720;51.958;4.540;2023-11-21T10:01:18;20.00;;;15.27;;
13303;SDS011;6720;51.958;4.540;2023-11-21T10:03:45;17.47;;;13.80;;
13303;SDS011;6720;51.958;4.540;2023-11-21T10:06:12;16.13;;;12.63;;
13303;SDS011;6720;51.958;4.540;2023-11-21T10:08:39;14.87;;;11.23;;
13303;SDS011;6720;51.958;4.540;2023-11-21T10:11:06;18.13;;;13.53;;
13303;SDS011;6720;51.958;4.540;2023-11-21T10:13:36;17.43;;;12.13;;
13303;SDS011;6720;51.958;4.540;2023-11-21T10:16:02;14.30;;;11.80;;
13303;SDS011;6720;51.958;4.540;2023-11-21T10:18:31;13.97;;;10.67;;
13303;SDS011;6720;51.958;4.540;2023-11-21T10:20:59;16.90;;;13.27;;
13303;SDS011;6720;51.958;4.540;2023-11-21T10:23:25;18.73;;;14.60;;
13303;SDS011;6720;51.958;4.540;2023-11-21T10:25:51;25.80;;;18.13;;
13303;SDS011;6720;51.958;4.540;2023-11-21T10:28:17;19.80;;;13.73;;
13303;SDS011;6720;51.958;4.540;2023-11-21T10:30:42;12.00;;;9.17;;
13303;SDS011;6720;51.958;4.540;2023-11-21T10:33:09;11.60;;;8.60;;
13303;SDS011;6720;51.958;4.540;2023-11-21T10:35:41;12.77;;;9.80;;
13303;SDS011;6720;51.958;4.540;2023-11-21T10:38:07;11.97;;;8.63;;
13303;SDS011;6720;51.958;4.540;2023-11-21T10:40:37;11.90;;;9.20;;
13303;SDS011;6720;51.958;4.540;2023-11-21T10:43:08;12.00;;;9.50;;
13303;SDS011;6720;51.958;4.540;2023-11-21T10:45:34;13.53;;;9.07;;
13303;SDS011;6720;51.958;4.540;2023-11-21T10:48:04;10.93;;;8.57;;
13303;SDS011;6720;51.958;4.540;2023-11-21T10:50:32;12.07;;;8.90;;
13303;SDS011;6720;51.958;4.540;2023-11-21T10:53:00;16.00;;;12.27;;
13303;SDS011;6720;51.958;4.540;2023-11-21T10:55:30;11.47;;;8.47;;
13303;SDS011;6720;51.958;4.540;2023-11-21T10:57:58;10.73;;;8.90;;
13303;SDS011;6720;51.958;4.540;2023-11-21T11:00:24;12.60;;;8.63;;
13303;SDS011;6720;51.958;4.540;2023-11-21T11:02:52;9.53;;;7.63;;
13303;SDS011;6720;51.958;4.540;2023-11-21T11:05:22;10.83;;;8.10;;
13303;SDS011;6720;51.958;4.540;2023-11-21T11:08:31;10.30;;;7.93;;
13303;SDS011;6720;51.958;4.540;2023-11-21T11:10:38;11.90;;;9.03;;
13303;SDS011;6720;51.958;4.540;2023-11-21T11:13:04;13.47;;;10.30;;
13303;SDS011;6720;51.958;4.540;2023-11-21T11:15:31;13.07;;;9.60;;
13303;SDS011;6720;51.958;4.540;2023-11-21T11:17:57;12.87;;;10.97;;
13303;SDS011;6720;51.958;4.540;2023-11-21T11:20:23;13.63;;;10.83;;
13303;SDS011;6720;51.958;4.540;2023-11-21T11:28:10;14.20;;;10.80;;
13303;SDS011;6720;51.958;4.540;2023-11-21T11:39:26;16.20;;;11.90;;
13303;SDS011;6720;51.958;4.540;2023-11-21T11:42:01;17.03;;;13.13;;
13303;SDS011;6720;51.958;4.540;2023-11-21T11:50:10;24.33;;;18.73;;
13303;SDS011;6720;51.958;4.540;2023-11-21T11:52:51;16.73;;;13.03;;
13303;SDS011;6720;51.958;4.540;2023-11-21T11:55:31;32.97;;;24.50;;
13303;SDS011;6720;51.958;4.540;2023-11-21T11:57:57;19.63;;;13.57;;
13303;SDS011;6720;51.958;4.540;2023-11-21T12:02:57;14.77;;;11.20;;
13303;SDS011;6720;51.958;4.540;2023-11-21T12:05:33;19.43;;;14.97;;
13303;SDS011;6720;51.958;4.540;2023-11-21T12:08:07;16.53;;;12.50;;
13303;SDS011;6720;51.958;4.540;2023-11-21T12:10:33;11.60;;;9.07;;
13303;SDS011;6720;51.958;4.540;2023-11-21T12:13:01;11.57;;;8.70;;
13303;SDS011;6720;51.958;4.540;2023-11-21T12:15:28;11.03;;;8.97;;
13303;SDS011;6720;51.958;4.540;2023-11-21T12:17:55;13.27;;;10.20;;
13303;SDS011;6720;51.958;4.540;2023-11-21T12:20:22;11.40;;;9.30;;
13303;SDS011;6720;51.958;4.540;2023-11-21T12:22:57;10.30;;;8.43;;
13303;SDS011;6720;51.958;4.540;2023-11-21T12:25:25;11.47;;;8.63;;
13303;SDS011;6720;51.958;4.540;2023-11-21T12:28:00;8.87;;;7.63;;
13303;SDS011;6720;51.958;4.540;2023-11-21T12:30:27;9.70;;;7.80;;
13303;SDS011;6720;51.958;4.540;2023-11-21T12:32:56;8.87;;;7.90;;
13303;SDS011;6720;51.958;4.540;2023-11-21T12:35:26;9.93;;;7.70;;
13303;SDS011;6720;51.958;4.540;2023-11-21T12:37:53;10.57;;;7.80;;
13303;SDS011;6720;51.958;4.540;2023-11-21T12:40:22;10.23;;;7.93;;
13303;SDS011;6720;51.958;4.540;2023-11-21T12:42:48;10.67;;;8.40;;
13303;SDS011;6720;51.958;4.540;2023-11-21T12:47:42;11.20;;;9.33;;
13303;SDS011;6720;51.958;4.540;2023-11-21T12:50:09;11.07;;;8.83;;
13303;SDS011;6720;51.958;4.540;2023-11-21T12:52:45;9.07;;;8.07;;
13303;SDS011;6720;51.958;4.540;2023-11-21T12:55:18;8.57;;;7.43;;
13303;SDS011;6720;51.958;4.540;2023-11-21T12:57:48;10.10;;;8.43;;
13303;SDS011;6720;51.958;4.540;2023-11-21T13:00:20;10.23;;;7.97;;
13303;SDS011;6720;51.958;4.540;2023-11-21T13:02:53;9.20;;;8.03;;
13303;SDS011;6720;51.958;4.540;2023-11-21T13:05:28;11.87;;;8.53;;
13303;SDS011;6720;51.958;4.540;2023-11-21T13:07:56;10.50;;;8.47;;
13303;SDS011;6720;51.958;4.540;2023-11-21T13:10:26;9.57;;;8.27;;
13303;SDS011;6720;51.958;4.540;2023-11-21T13:12:56;10.67;;;9.43;;
13303;SDS011;6720;51.958;4.540;2023-11-21T13:15:25;10.83;;;9.30;;
13303;SDS011;6720;51.958;4.540;2023-11-21T13:17:52;11.77;;;9.20;;
13303;SDS011;6720;51.958;4.540;2023-11-21T13:20:19;9.00;;;8.03;;
13303;SDS011;6720;51.958;4.540;2023-11-21T13:22:47;9.37;;;7.87;;
13303;SDS011;6720;51.958;4.540;2023-11-21T13:25:14;10.50;;;8.47;;
13303;SDS011;6720;51.958;4.540;2023-11-21T13:27:43;10.97;;;9.27;;
13303;SDS011;6720;51.958;4.540;2023-11-21T13:30:10;12.13;;;9.27;;
13303;SDS011;6720;51.958;4.540;2023-11-21T13:32:44;10.87;;;8.70;;
13303;SDS011;6720;51.958;4.540;2023-11-21T13:35:14;10.33;;;8.00;;
13303;SDS011;6720;51.958;4.540;2023-11-21T13:37:54;10.53;;;8.40;;
13303;SDS011;6720;51.958;4.540;2023-11-21T13:40:21;10.33;;;8.03;;
13303;SDS011;6720;51.958;4.540;2023-11-21T13:42:51;15.03;;;11.50;;
13303;SDS011;6720;51.958;4.540;2023-11-21T13:45:22;9.27;;;8.37;;
13303;SDS011;6720;51.958;4.540;2023-11-21T13:47:49;11.10;;;9.93;;
13303;SDS011;6720;51.958;4.540;2023-11-21T13:50:17;10.17;;;9.00;;
13303;SDS011;6720;51.958;4.540;2023-11-21T13:52:47;10.73;;;9.10;;
13303;SDS011;6720;51.958;4.540;2023-11-21T13:55:13;9.53;;;8.47;;
13303;SDS011;6720;51.958;4.540;2023-11-21T13:57:43;9.83;;;8.83;;
13303;SDS011;6720;51.958;4.540;2023-11-21T14:00:12;10.13;;;8.80;;
13303;SDS011;6720;51.958;4.540;2023-11-21T14:02:58;11.87;;;9.13;;
13303;SDS011;6720;51.958;4.540;2023-11-21T14:05:25;11.80;;;9.57;;
13303;SDS011;6720;51.958;4.540;2023-11-21T14:07:55;12.07;;;10.33;;
13303;SDS011;6720;51.958;4.540;2023-11-21T14:10:21;12.20;;;10.37;;
13303;SDS011;6720;51.958;4.540;2023-11-21T14:12:49;11.67;;;10.37;;
13303;SDS011;6720;51.958;4.540;2023-11-21T14:15:15;13.93;;;11.20;;
13303;SDS011;6720;51.958;4.540;2023-11-21T14:17:44;11.93;;;9.63;;
13303;SDS011;6720;51.958;4.540;2023-11-21T14:20:10;12.37;;;9.80;;
13303;SDS011;6720;51.958;4.540;2023-11-21T14:22:45;11.67;;;9.33;;
13303;SDS011;6720;51.958;4.540;2023-11-21T14:25:11;14.57;;;10.97;;
13303;SDS011;6720;51.958;4.540;2023-11-21T14:27:39;12.97;;;11.10;;
13303;SDS011;6720;51.958;4.540;2023-11-21T14:30:05;13.83;;;12.03;;
13303;SDS011;6720;51.958;4.540;2023-11-21T14:32:31;11.97;;;10.53;;
13303;SDS011;6720;51.958;4.540;2023-11-21T14:34:57;13.30;;;11.00;;
13303;SDS011;6720;51.958;4.540;2023-11-21T14:37:22;15.47;;;11.90;;
13303;SDS011;6720;51.958;4.540;2023-11-21T14:39:49;13.27;;;11.57;;
13303;SDS011;6720;51.958;4.540;2023-11-21T14:42:15;16.03;;;11.93;;
13303;SDS011;6720;51.958;4.540;2023-11-21T14:44:40;14.93;;;11.83;;
13303;SDS011;6720;51.958;4.540;2023-11-21T14:47:07;13.13;;;11.50;;
13303;SDS011;6720;51.958;4.540;2023-11-21T14:49:43;14.20;;;10.60;;
13303;SDS011;6720;51.958;4.540;2023-11-21T14:52:32;11.87;;;10.40;;
13303;SDS011;6720;51.958;4.540;2023-11-21T14:55:03;13.93;;;11.73;;
13303;SDS011;6720;51.958;4.540;2023-11-21T14:57:48;16.27;;;13.13;;
13303;SDS011;6720;51.958;4.540;2023-11-21T15:00:17;15.00;;;12.60;;
13303;SDS011;6720;51.958;4.540;2023-11-21T15:03:02;14.80;;;12.50;;
13303;SDS011;6720;51.958;4.540;2023-11-21T15:05:29;16.63;;;12.93;;